Time;durP1;ratioP1;P1;durP2;ratioP2;P2;SDS_P1;SDS_P2;PMS_P1;PMS_P2;Temp;Humidity;BMP_temperature;BMP_pressure;BME280_temperature;BME280_humidity;BME280_pressure;Samples;Min_cycle;Max_cycle;Signal;HPM_P1;HPM_P2
2023/12/29 00:02:13;;;;;;;11.75;5.43;;;;;;;-14.34;72.64;101107.41;5060779;28;20052;-65
2023/12/29 00:04:43;;;;;;;8.32;5.10;;;;;;;-14.16;72.59;101104.88;5049280;28;20139;-65
2023/12/29 00:07:14;;;;;;;9.55;5.53;;;;;;;-13.98;72.81;101101.56;5060733;28;20044;-65
2023/12/29 00:09:48;;;;;;;12.00;6.07;;;;;;;-13.97;72.50;101110.91;5050889;28;20052;-65
2023/12/29 00:12:19;;;;;;;9.75;5.45;;;;;;;-13.95;72.50;101096.88;5057279;28;20060;-65
2023/12/29 00:14:49;;;;;;;13.73;6.18;;;;;;;-13.73;73.25;101101.34;5046786;28;20055;-65
2023/12/29 00:17:20;;;;;;;14.00;5.57;;;;;;;-13.53;73.83;101090.63;5058927;28;20400;-65
2023/12/29 00:19:50;;;;;;;12.77;6.43;;;;;;;-13.33;73.53;101095.84;5049804;28;20060;-65
2023/12/29 00:22:21;;;;;;;9.40;5.28;;;;;;;-13.28;72.98;101088.75;5057587;28;20052;-65
2023/12/29 00:24:53;;;;;;;10.05;5.13;;;;;;;-13.15;73.09;101091.63;5046915;28;20104;-65
2023/12/29 00:27:23;;;;;;;8.73;5.82;;;;;;;-13.01;72.81;101089.44;5057295;28;20882;-64
2023/12/29 00:29:54;;;;;;;7.38;4.60;;;;;;;-12.82;72.93;101087.84;5050619;28;20663;-65
2023/12/29 00:32:24;;;;;;;8.57;4.60;;;;;;;-12.68;73.10;101092.50;5060618;28;20237;-65
2023/12/29 00:34:55;;;;;;;11.27;4.82;;;;;;;-12.67;72.64;101098.41;5050326;28;20049;-65
2023/12/29 00:37:25;;;;;;;8.05;4.78;;;;;;;-12.64;72.76;101104.56;5060597;28;20056;-65
2023/12/29 00:39:57;;;;;;;10.02;5.30;;;;;;;-12.58;72.68;101103.34;5049557;28;20527;-65
2023/12/29 00:42:28;;;;;;;7.60;5.18;;;;;;;-12.53;72.57;101104.63;5057031;28;20051;-65
2023/12/29 00:44:58;;;;;;;12.02;6.68;;;;;;;-12.65;72.66;101101.94;5038500;28;20074;-65
2023/12/29 00:47:29;;;;;;;11.55;6.65;;;;;;;-12.60;73.58;101104.13;5060310;28;20091;-65
2023/12/29 00:49:59;;;;;;;12.38;7.20;;;;;;;-12.57;74.12;101095.06;5050977;28;20627;-65
2023/12/29 00:52:30;;;;;;;10.07;7.53;;;;;;;-12.50;74.69;101104.91;5058837;28;20044;-65
2023/12/29 00:55:02;;;;;;;14.55;8.32;;;;;;;-12.50;74.96;101108.34;5048090;28;20047;-65
2023/12/29 00:57:32;;;;;;;12.93;7.80;;;;;;;-12.31;75.71;101105.78;5059174;28;20062;-67
2023/12/29 01:00:03;;;;;;;11.43;7.43;;;;;;;-12.08;75.92;101104.38;5049970;28;20074;-66
2023/12/29 01:02:33;;;;;;;12.00;8.05;;;;;;;-11.85;75.89;101099.69;5053909;28;20130;-66
2023/12/29 01:05:04;;;;;;;11.77;7.30;;;;;;;-11.64;75.95;101097.22;5060572;28;20075;-66
2023/12/29 01:07:34;;;;;;;11.75;7.20;;;;;;;-11.48;75.46;101087.69;5051953;28;20052;-66
2023/12/29 01:10:08;;;;;;;11.73;6.97;;;;;;;-11.24;75.78;101090.50;5059545;28;20690;-67
2023/12/29 01:12:38;;;;;;;11.38;6.63;;;;;;;-11.10;75.13;101078.25;5049467;28;20048;-67
2023/12/29 01:15:10;;;;;;;6.93;4.90;;;;;;;-10.96;74.93;101081.03;5059453;28;20055;-67
2023/12/29 01:17:40;;;;;;;25.10;11.43;;;;;;;-10.79;74.29;101069.78;5045871;28;20666;-68
2023/12/29 01:20:11;;;;;;;19.13;9.98;;;;;;;-10.48;74.22;101069.00;5060523;28;20058;-68
2023/12/29 01:22:42;;;;;;;18.48;7.80;;;;;;;-10.30;73.55;101069.56;5049799;28;20080;-67
2023/12/29 01:25:14;;;;;;;16.90;7.97;;;;;;;-10.03;73.46;101060.72;5059181;28;20625;-67
2023/12/29 01:27:44;;;;;;;13.45;6.53;;;;;;;-9.71;73.57;101057.25;5049223;28;20085;-67
2023/12/29 01:30:15;;;;;;;9.75;5.00;;;;;;;-9.45;72.82;101049.16;5059857;28;20075;-67
2023/12/29 01:32:45;;;;;;;9.65;4.55;;;;;;;-9.31;71.95;101057.78;5045345;28;20181;-67
2023/12/29 01:35:16;;;;;;;10.35;5.55;;;;;;;-9.17;71.49;101062.22;5058093;28;20105;-66
2023/12/29 01:37:48;;;;;;;7.47;4.30;;;;;;;-9.04;71.16;101058.09;5046950;28;20049;-68
2023/12/29 01:40:20;;;;;;;16.95;6.60;;;;;;;-8.92;71.67;101038.75;5058824;28;20047;-68
2023/12/29 01:42:51;;;;;;;12.80;6.38;;;;;;;-8.72;71.01;101058.81;5043139;28;20492;-67
2023/12/29 01:45:26;;;;;;;10.15;5.20;;;;;;;-8.65;70.80;101054.19;5058845;28;20140;-66
2023/12/29 01:47:56;;;;;;;10.23;5.43;;;;;;;-8.47;70.74;101050.47;5046109;28;20142;-65
2023/12/29 01:50:27;;;;;;;8.80;5.50;;;;;;;-8.71;69.30;101045.38;5054996;28;20067;-64
2023/12/29 01:52:58;;;;;;;10.63;5.53;;;;;;;-8.83;69.00;101036.88;5047146;28;20079;-66
2023/12/29 01:55:31;;;;;;;15.02;5.47;;;;;;;-8.72;69.63;101038.53;5058400;28;20071;-65
2023/12/29 01:58:02;;;;;;;9.52;5.20;;;;;;;-8.52;70.57;101041.63;5043259;28;20050;-65
2023/12/29 02:00:33;;;;;;;8.38;4.65;;;;;;;-8.38;70.32;101035.88;5056572;28;20056;-64
2023/12/29 02:03:04;;;;;;;7.90;4.80;;;;;;;-8.23;70.04;101030.16;5054953;28;20477;-63
2023/12/29 02:05:37;;;;;;;9.40;4.57;;;;;;;-8.17;69.60;101030.56;5050408;28;20144;-64
2023/12/29 02:08:08;;;;;;;10.38;4.88;;;;;;;-8.06;69.04;101029.69;5059247;28;20511;-66
2023/12/29 02:10:41;;;;;;;7.00;3.45;;;;;;;-7.93;68.90;101027.22;5049093;28;20055;-65
2023/12/29 02:13:12;;;;;;;8.35;4.10;;;;;;;-7.91;68.26;101023.16;5058823;28;20048;-64
2023/12/29 02:15:42;;;;;;;7.43;4.32;;;;;;;-8.58;67.76;100919.59;5044587;28;20051;-65
2023/12/29 02:18:17;;;;;;;8.18;4.55;;;;;;;-8.11;67.76;101013.25;5019641;28;20049;-66
2023/12/29 02:20:48;;;;;;;9.48;4.25;;;;;;;-7.97;68.13;101015.09;5008991;28;20530;-64
2023/12/29 02:23:18;;;;;;;9.25;4.70;;;;;;;-7.79;68.36;101014.59;5019176;28;20060;-64
2023/12/29 02:25:52;;;;;;;7.38;4.28;;;;;;;-7.61;68.63;101015.88;5009883;28;20057;-66
2023/12/29 02:28:27;;;;;;;6.60;3.97;;;;;;;-7.57;67.93;100992.44;5019650;28;20052;-64
2023/12/29 02:31:03;;;;;;;6.20;3.88;;;;;;;-7.38;68.02;101005.63;5009770;28;20057;-64
2023/12/29 02:33:38;;;;;;;6.57;4.05;;;;;;;-7.39;67.44;101003.88;5016173;28;20114;-64
2023/12/29 02:36:12;;;;;;;7.70;3.25;;;;;;;-7.43;66.74;101001.88;5019054;28;20053;-65
2023/12/29 02:38:42;;;;;;;8.20;3.67;;;;;;;-7.45;66.37;100997.50;5009232;28;20077;-64
2023/12/29 02:41:15;;;;;;;7.10;3.50;;;;;;;-7.38;66.41;100995.47;5018905;28;20057;-63
2023/12/29 02:43:45;;;;;;;8.82;4.13;;;;;;;-7.26;66.46;100995.41;5009296;28;20776;-65
2023/12/29 02:46:16;;;;;;;8.27;4.35;;;;;;;-7.21;65.83;100988.97;5018826;28;20049;-64
2023/12/29 02:48:47;;;;;;;7.22;4.03;;;;;;;-7.02;65.62;100985.97;5006122;28;21250;-63
2023/12/29 02:51:17;;;;;;;6.22;3.95;;;;;;;-6.74;66.82;100982.66;5019192;28;20132;-65
2023/12/29 02:53:48;;;;;;;7.50;3.50;;;;;;;-6.58;65.81;100980.34;5009186;28;20549;-66
2023/12/29 02:56:21;;;;;;;7.40;3.90;;;;;;;-6.54;64.49;100979.75;5019071;28;20144;-64
2023/12/29 02:58:52;;;;;;;6.60;3.00;;;;;;;-6.47;63.36;100980.13;5009621;28;20061;-65
2023/12/29 03:01:22;;;;;;;7.97;2.90;;;;;;;-6.41;63.18;100980.53;5019053;28;20053;-65
2023/12/29 03:03:53;;;;;;;6.68;2.80;;;;;;;-6.36;62.65;100981.72;5009826;28;20631;-65
2023/12/29 03:06:24;;;;;;;5.18;3.20;;;;;;;-6.38;61.00;100985.81;5019409;28;20091;-64
2023/12/29 03:08:55;;;;;;;7.55;3.10;;;;;;;-6.34;60.25;100985.19;5008400;28;20075;-67
2023/12/29 03:11:27;;;;;;;5.05;3.33;;;;;;;-6.37;59.39;100974.84;5018218;28;20061;-65
2023/12/29 03:13:57;;;;;;;3.22;2.30;;;;;;;-6.28;60.07;100972.88;5009347;28;20048;-65
2023/12/29 03:16:28;;;;;;;5.43;2.65;;;;;;;-6.48;57.75;100968.22;5030368;28;20164;-66
2023/12/29 03:18:58;;;;;;;4.53;2.53;;;;;;;-6.61;58.18;100964.91;5043218;28;20145;-63
2023/12/29 03:21:29;;;;;;;6.65;2.92;;;;;;;-6.57;58.89;100956.66;5058232;28;20052;-65
2023/12/29 03:23:59;;;;;;;4.25;2.70;;;;;;;-6.52;58.64;100955.28;5044405;28;20498;-65
2023/12/29 03:26:31;;;;;;;5.68;2.80;;;;;;;-6.58;57.55;100949.84;5056159;28;20086;-65
2023/12/29 03:29:02;;;;;;;4.60;2.78;;;;;;;-6.45;59.32;100950.59;5050677;28;20081;-63
2023/12/29 03:31:32;;;;;;;3.55;2.60;;;;;;;-6.29;58.76;100948.22;5058665;28;20524;-65
2023/12/29 03:34:03;;;;;;;5.50;2.88;;;;;;;-6.26;57.26;100948.44;5043938;28;20472;-65
2023/12/29 03:36:34;;;;;;;4.88;2.75;;;;;;;-6.45;56.04;100951.47;5058551;28;20166;-64
2023/12/29 03:39:04;;;;;;;7.13;2.80;;;;;;;-6.73;55.56;100953.94;5060494;28;20062;-65
2023/12/29 03:41:39;;;;;;;5.53;2.30;;;;;;;-6.78;57.29;100940.06;5035732;28;20052;-66
2023/12/29 03:44:09;;;;;;;3.83;2.30;;;;;;;-6.61;59.48;100942.03;5061689;28;20140;-65
2023/12/29 03:46:39;;;;;;;3.90;2.55;;;;;;;-6.69;57.92;100945.72;5049158;28;20544;-65
2023/12/29 03:49:10;;;;;;;6.10;2.83;;;;;;;-7.21;57.45;100856.03;5061700;28;20048;-66
2023/12/29 03:51:40;;;;;;;4.78;3.45;;;;;;;-6.87;56.13;100940.34;5051011;28;20108;-66
2023/12/29 03:54:11;;;;;;;6.35;3.20;;;;;;;-7.16;56.09;100941.91;5061496;28;20048;-67
2023/12/29 03:56:43;;;;;;;7.85;3.30;;;;;;;-7.12;56.95;100937.88;5051175;28;20201;-66
2023/12/29 03:59:13;;;;;;;4.53;3.38;;;;;;;-7.07;56.67;100941.59;5060583;28;20044;-66
2023/12/29 04:01:44;;;;;;;6.57;2.95;;;;;;;-7.07;56.13;100946.69;5049390;28;20040;-64
2023/12/29 04:04:14;;;;;;;7.93;2.70;;;;;;;-6.95;56.88;100934.78;5061364;28;20735;-66
2023/12/29 04:06:45;;;;;;;5.03;2.50;;;;;;;-6.92;56.24;100925.59;5050908;28;20040;-66
2023/12/29 04:09:15;;;;;;;4.22;2.33;;;;;;;-6.78;56.39;100940.06;5057556;28;20044;-66
2023/12/29 04:11:48;;;;;;;5.28;2.65;;;;;;;-6.74;56.53;100931.84;5050707;28;20542;-66
2023/12/29 04:14:18;;;;;;;4.00;2.50;;;;;;;-6.97;55.16;100927.84;5060736;28;20098;-66
2023/12/29 04:16:48;;;;;;;3.95;2.58;;;;;;;-7.21;54.04;100930.56;5050804;28;20180;-64
2023/12/29 04:19:19;;;;;;;3.38;2.25;;;;;;;-7.56;53.80;100914.66;5060542;28;20056;-65
2023/12/29 04:21:49;;;;;;;6.63;2.92;;;;;;;-7.86;54.00;100925.41;5050533;28;20142;-65
2023/12/29 04:24:20;;;;;;;4.35;2.42;;;;;;;-7.91;54.22;100919.13;5057600;28;20055;-65
2023/12/29 04:26:52;;;;;;;4.53;2.60;;;;;;;-7.97;54.02;100913.63;5047255;28;20080;-64
2023/12/29 04:29:22;;;;;;;4.28;2.53;;;;;;;-8.07;53.40;100917.19;5060612;28;20261;-65
2023/12/29 04:31:53;;;;;;;3.30;2.50;;;;;;;-8.07;53.66;100912.13;5050604;28;20140;-66
2023/12/29 04:34:23;;;;;;;3.13;2.55;;;;;;;-8.18;53.38;100907.13;5060624;28;20152;-65
2023/12/29 04:36:54;;;;;;;3.80;2.50;;;;;;;-8.16;53.77;100910.59;5047059;28;20060;-68
2023/12/29 04:39:24;;;;;;;4.10;2.20;;;;;;;-8.09;54.12;100902.66;5056826;28;20047;-65
2023/12/29 04:41:56;;;;;;;5.03;2.40;;;;;;;-8.10;53.91;100900.91;5050044;28;20667;-66
2023/12/29 04:44:27;;;;;;;4.00;2.47;;;;;;;-8.08;53.94;100894.28;5060321;28;20071;-64
2023/12/29 04:46:57;;;;;;;4.65;2.42;;;;;;;-8.02;53.79;100905.72;5050539;28;20067;-66
2023/12/29 04:49:28;;;;;;;6.53;2.70;;;;;;;-7.93;53.40;100902.94;5060429;28;20052;-64
2023/12/29 04:51:58;;;;;;;4.47;2.85;;;;;;;-7.93;53.55;100900.41;5049396;28;20617;-64
2023/12/29 04:54:29;;;;;;;9.73;4.80;;;;;;;-7.85;54.95;100909.41;5056818;28;20062;-64
2023/12/29 04:57:04;;;;;;;6.80;2.95;;;;;;;-7.96;54.58;100905.28;5049697;28;20048;-65
2023/12/29 04:59:35;;;;;;;4.53;2.20;;;;;;;-8.07;54.80;100906.19;5047570;28;20075;-64
2023/12/29 05:02:05;;;;;;;2.88;2.38;;;;;;;-8.15;54.21;100897.19;5060454;28;20079;-64
2023/12/29 05:04:37;;;;;;;7.63;2.75;;;;;;;-8.23;53.70;100903.38;5049623;28;20138;-65
2023/12/29 05:07:11;;;;;;;3.97;2.60;;;;;;;-8.36;53.54;100910.16;5056632;28;20587;-66
2023/12/29 05:09:41;;;;;;;5.90;2.67;;;;;;;-8.29;54.01;100897.09;5049623;28;20067;-68
2023/12/29 05:12:14;;;;;;;6.95;2.40;;;;;;;-8.17;54.23;100898.72;5059582;28;20059;-65
2023/12/29 05:14:45;;;;;;;5.40;2.67;;;;;;;-8.16;54.31;100903.00;5046497;28;20060;-66
2023/12/29 05:17:15;;;;;;;3.80;2.42;;;;;;;-8.23;54.35;100903.38;5059103;28;20109;-65
2023/12/29 05:19:46;;;;;;;3.85;2.40;;;;;;;-8.37;54.99;100877.94;5050243;28;20142;-67
2023/12/29 05:22:17;;;;;;;4.68;2.47;;;;;;;-8.07;55.91;100911.25;5058599;28;20105;-67
2023/12/29 05:24:48;;;;;;;3.58;2.20;;;;;;;-8.03;57.36;100908.16;5045640;28;20083;-67
2023/12/29 05:27:22;;;;;;;5.93;2.60;;;;;;;-8.08;56.20;100902.78;5059454;28;20115;-66
2023/12/29 05:29:53;;;;;;;3.58;2.50;;;;;;;-8.14;56.24;100899.78;5049680;28;20071;-66
2023/12/29 05:32:23;;;;;;;6.20;2.33;;;;;;;-8.12;56.07;100907.53;5059595;28;20082;-67
2023/12/29 05:34:54;;;;;;;3.90;2.40;;;;;;;-8.22;55.28;100915.28;5050002;28;20088;-67
2023/12/29 05:37:25;;;;;;;5.10;2.30;;;;;;;-8.36;55.12;100907.59;5059495;28;20044;-67
2023/12/29 05:39:55;;;;;;;2.83;2.10;;;;;;;-8.38;55.14;100909.16;5045430;28;20770;-67
2023/12/29 05:42:27;;;;;;;2.92;2.25;;;;;;;-8.46;55.15;100905.25;5059209;28;20052;-66
2023/12/29 05:44:58;;;;;;;4.10;2.33;;;;;;;-8.50;56.07;100908.31;5048734;28;20682;-67
2023/12/29 05:47:28;;;;;;;5.97;2.33;;;;;;;-8.53;55.70;100909.00;5056143;28;20055;-65
2023/12/29 05:49:59;;;;;;;3.83;2.45;;;;;;;-8.49;57.37;100905.88;5040436;28;20056;-67
2023/12/29 05:52:30;;;;;;;8.68;3.88;;;;;;;-8.46;58.36;100917.91;5056621;28;20392;-66
2023/12/29 05:55:00;;;;;;;7.78;3.70;;;;;;;-8.49;59.57;100910.06;5040652;28;20134;-67
2023/12/29 05:57:33;;;;;;;5.47;3.42;;;;;;;-8.60;60.63;100918.59;5056123;28;20079;-67
2023/12/29 06:00:04;;;;;;;8.25;3.50;;;;;;;-8.73;60.72;100920.25;5048899;28;20404;-66
2023/12/29 06:02:35;;;;;;;4.72;2.97;;;;;;;-8.78;61.68;100916.53;5050224;28;20060;-64
2023/12/29 06:05:06;;;;;;;5.00;3.00;;;;;;;-8.92;61.74;100907.91;5059386;28;20530;-65
2023/12/29 06:07:36;;;;;;;5.00;3.08;;;;;;;-9.20;61.76;100900.00;5047710;28;20268;-67
2023/12/29 06:10:08;;;;;;;6.85;3.45;;;;;;;-9.48;62.27;100896.22;5058252;28;20101;-66
2023/12/29 06:12:40;;;;;;;5.57;3.50;;;;;;;-9.73;62.61;100903.63;5043717;28;20407;-67
2023/12/29 06:15:11;;;;;;;4.93;3.00;;;;;;;-9.83;63.80;100897.03;5056547;28;20058;-67
2023/12/29 06:17:43;;;;;;;3.42;2.50;;;;;;;-9.96;63.98;100899.38;5014652;28;20061;-67
2023/12/29 06:20:14;;;;;;;3.72;2.50;;;;;;;-10.29;64.17;100894.44;5018202;28;20060;-66
2023/12/29 06:22:44;;;;;;;3.97;2.33;;;;;;;-10.61;64.37;100899.53;5007443;28;20052;-65
2023/12/29 06:25:15;;;;;;;3.80;2.60;;;;;;;-10.89;64.71;100899.91;5019000;28;20140;-67
2023/12/29 06:27:48;;;;;;;5.47;2.53;;;;;;;-10.97;65.80;100895.91;5009177;28;20056;-66
2023/12/29 06:30:18;;;;;;;4.70;2.83;;;;;;;-11.21;65.78;100896.47;5018890;28;20048;-66
2023/12/29 06:32:49;;;;;;;3.50;2.78;;;;;;;-11.64;66.48;100908.13;5008909;28;20470;-68
2023/12/29 06:35:19;;;;;;;15.30;7.47;;;;;;;-11.95;67.19;100895.56;5018903;28;20760;-68
2023/12/29 06:37:50;;;;;;;12.82;6.93;;;;;;;-12.33;67.52;100910.84;5009240;28;20177;-67
2023/12/29 06:40:20;;;;;;;7.35;4.72;;;;;;;-12.71;68.38;100898.38;5019163;28;20064;-67
2023/12/29 06:42:53;;;;;;;5.15;3.80;;;;;;;-13.15;70.01;100890.41;5008685;28;20056;-67
2023/12/29 06:45:23;;;;;;;3.75;2.80;;;;;;;-13.32;72.37;100901.53;5018335;28;20056;-68
2023/12/29 06:47:54;;;;;;;4.20;3.28;;;;;;;-13.47;73.78;100911.09;5009433;28;20110;-66
2023/12/29 06:50:24;;;;;;;7.20;3.63;;;;;;;-13.53;74.75;100915.56;5018578;28;20138;-67
2023/12/29 06:52:55;;;;;;;9.95;5.50;;;;;;;-13.55;75.20;100914.56;5010162;28;20045;-67
2023/12/29 06:55:27;;;;;;;9.60;5.50;;;;;;;-13.59;75.37;100916.69;5019348;28;20045;-67
2023/12/29 06:57:59;;;;;;;5.50;3.35;;;;;;;-13.71;75.95;100919.84;5008929;28;20049;-66
2023/12/29 07:00:30;;;;;;;6.90;3.55;;;;;;;-13.81;76.48;100921.41;5018904;28;20077;-67
2023/12/29 07:03:01;;;;;;;3.85;3.33;;;;;;;-13.88;77.12;100919.06;5003365;28;20674;-66
2023/12/29 07:05:32;;;;;;;5.72;3.58;;;;;;;-13.97;77.52;100935.06;5022759;28;20049;-66
2023/12/29 07:08:03;;;;;;;3.53;3.00;;;;;;;-14.01;78.77;100933.03;5005316;28;20055;-67
2023/12/29 07:10:33;;;;;;;2.83;2.58;;;;;;;-14.09;79.86;100933.94;5020198;28;20118;-66
2023/12/29 07:13:06;;;;;;;10.00;6.07;;;;;;;-14.10;80.07;100929.69;5021295;28;20091;-66
2023/12/29 07:15:37;;;;;;;7.40;5.28;;;;;;;-14.18;80.30;100933.09;5012380;28;20068;-66
2023/12/29 07:18:08;;;;;;;4.18;3.42;;;;;;;-14.25;80.62;100930.75;5060901;28;20170;-66
2023/12/29 07:20:38;;;;;;;4.35;3.25;;;;;;;-14.28;80.82;100925.47;5048492;28;20054;-67
2023/12/29 07:23:09;;;;;;;6.82;3.25;;;;;;;-14.29;80.78;100926.22;5062265;28;20931;-66
2023/12/29 07:25:39;;;;;;;5.18;3.20;;;;;;;-14.28;81.20;100920.44;5051751;28;20097;-66
2023/12/29 07:28:12;;;;;;;18.25;12.45;;;;;;;-14.23;81.13;100924.25;5061548;28;20107;-66
2023/12/29 07:30:42;;;;;;;12.90;10.00;;;;;;;-14.14;81.44;100925.13;5051395;28;20051;-66
2023/12/29 07:33:13;;;;;;;8.13;6.10;;;;;;;-14.03;81.20;100929.47;5061559;28;20522;-66
2023/12/29 07:35:44;;;;;;;11.90;5.18;;;;;;;-14.02;80.86;100931.25;5047690;28;20062;-66
2023/12/29 07:38:15;;;;;;;8.48;7.53;;;;;;;-14.08;81.05;100920.63;5059813;28;20225;-66
2023/12/29 07:40:47;;;;;;;4.55;4.00;;;;;;;-13.90;81.15;100921.47;5049724;28;20441;-66
2023/12/29 07:43:19;;;;;;;6.05;4.43;;;;;;;-13.78;81.24;100921.66;5061449;28;20127;-66
2023/12/29 07:45:50;;;;;;;6.93;3.50;;;;;;;-13.66;81.07;100932.81;5050997;28;20429;-66
2023/12/29 07:48:21;;;;;;;4.10;3.60;;;;;;;-13.70;80.88;100930.81;5061346;28;20484;-66
2023/12/29 07:50:51;;;;;;;6.50;4.55;;;;;;;-13.75;80.80;100924.44;5050415;28;20055;-66
2023/12/29 07:53:22;;;;;;;6.30;4.68;;;;;;;-13.64;81.12;100936.38;5060492;28;20044;-66
2023/12/29 07:55:53;;;;;;;30.48;14.00;;;;;;;-13.53;81.14;100925.63;5051418;28;20087;-66
2023/12/29 07:58:25;;;;;;;46.40;18.98;;;;;;;-13.41;81.00;100930.88;5061214;28;20141;-66
2023/12/29 08:00:55;;;;;;;24.98;10.40;;;;;;;-13.38;80.77;100930.25;5047626;28;20109;-66
2023/12/29 08:03:26;;;;;;;12.48;6.47;;;;;;;-13.50;79.90;100923.41;5060433;28;20581;-65
2023/12/29 08:05:57;;;;;;;69.22;30.85;;;;;;;-13.51;79.51;100930.81;5049904;28;20268;-66
2023/12/29 08:08:27;;;;;;;11.73;7.63;;;;;;;-13.78;79.13;100927.56;5058250;28;20048;-66
2023/12/29 08:10:58;;;;;;;10.43;6.57;;;;;;;-13.89;79.22;100937.41;5050701;28;20109;-66
2023/12/29 08:13:30;;;;;;;8.80;4.50;;;;;;;-13.88;80.21;100936.66;5056369;28;20062;-66
2023/12/29 08:16:00;;;;;;;9.32;5.40;;;;;;;-13.82;80.49;100935.59;5048825;28;20040;-66
2023/12/29 08:18:31;;;;;;;13.10;6.40;;;;;;;-13.78;80.71;100926.69;5060601;28;20443;-66
2023/12/29 08:21:01;;;;;;;22.08;12.02;;;;;;;-13.70;80.75;100925.78;5050736;28;20143;-66
2023/12/29 08:23:32;;;;;;;14.52;7.45;;;;;;;-13.79;80.38;100907.34;5056692;28;20071;-66
2023/12/29 08:26:04;;;;;;;16.23;8.40;;;;;;;-13.62;80.70;100926.47;5049273;28;20534;-66
2023/12/29 08:28:36;;;;;;;9.73;5.28;;;;;;;-13.61;80.54;100926.56;5050169;28;20060;-66
2023/12/29 08:31:08;;;;;;;12.10;7.80;;;;;;;-13.57;80.20;100933.66;5060105;28;20805;-66
2023/12/29 08:33:38;;;;;;;7.68;5.88;;;;;;;-13.61;79.95;100926.56;5048824;28;20058;-66
2023/12/29 08:36:09;;;;;;;8.23;4.95;;;;;;;-13.63;79.84;100935.59;5056663;28;20101;-66
2023/12/29 08:38:40;;;;;;;7.57;4.22;;;;;;;-13.62;79.68;100934.88;5049668;28;20477;-66
2023/12/29 08:41:10;;;;;;;10.18;4.25;;;;;;;-13.56;80.06;100930.38;5060257;28;20501;-66
2023/12/29 08:43:42;;;;;;;15.40;8.10;;;;;;;-13.67;80.15;100905.94;5048654;28;20123;-66
2023/12/29 08:46:13;;;;;;;12.93;7.13;;;;;;;-13.51;79.77;100924.13;5058465;28;20134;-66
2023/12/29 08:48:44;;;;;;;4.80;3.63;;;;;;;-13.53;79.23;100929.78;5049675;28;20060;-66
2023/12/29 08:51:14;;;;;;;5.28;3.78;;;;;;;-13.56;79.17;100930.38;5060063;28;20051;-66
2023/12/29 08:53:45;;;;;;;7.65;3.75;;;;;;;-13.55;79.26;100927.16;5049454;28;20058;-65
2023/12/29 08:56:15;;;;;;;4.28;3.08;;;;;;;-13.59;79.35;100925.09;5059186;28;20055;-66
2023/12/29 08:58:48;;;;;;;6.70;3.50;;;;;;;-13.68;79.17;100926.78;5049226;28;20048;-66
2023/12/29 09:01:19;;;;;;;4.90;2.95;;;;;;;-13.77;79.10;100933.50;5059991;28;20052;-66
2023/12/29 09:03:49;;;;;;;7.15;4.10;;;;;;;-13.89;79.05;100924.84;5049150;28;20039;-66
2023/12/29 09:06:20;;;;;;;6.53;4.18;;;;;;;-13.81;79.36;100936.47;5056002;28;21321;-66
2023/12/29 09:08:50;;;;;;;8.35;5.22;;;;;;;-13.79;79.62;100932.47;5046587;28;20056;-66
2023/12/29 09:11:21;;;;;;;9.95;6.45;;;;;;;-13.69;79.93;100933.44;5058640;28;20078;-66
2023/12/29 09:13:53;;;;;;;9.55;6.13;;;;;;;-13.57;80.28;100948.75;5048989;28;20139;-66
2023/12/29 09:16:24;;;;;;;14.18;8.32;;;;;;;-13.50;80.30;100941.00;5060083;28;20147;-66
2023/12/29 09:18:54;;;;;;;16.20;9.68;;;;;;;-13.50;79.84;100950.19;5049144;28;20515;-66
2023/12/29 09:21:25;;;;;;;11.10;7.20;;;;;;;-13.46;79.95;100952.19;5059799;28;20617;-67
2023/12/29 09:23:55;;;;;;;12.55;8.55;;;;;;;-13.51;79.51;100939.22;5049309;28;20048;-67
2023/12/29 09:26:25;;;;;;;11.07;6.00;;;;;;;-13.63;79.36;100953.19;5058649;28;20138;-67
2023/12/29 09:28:58;;;;;;;10.02;6.18;;;;;;;-13.70;79.70;100945.88;5049791;28;20048;-67
2023/12/29 09:31:28;;;;;;;10.85;6.35;;;;;;;-13.69;80.16;100952.66;5059735;28;20044;-67
2023/12/29 09:34:00;;;;;;;29.08;14.32;;;;;;;-13.72;80.40;100943.22;5049165;28;20585;-67
2023/12/29 09:36:30;;;;;;;31.13;14.68;;;;;;;-13.81;80.21;100936.47;5059592;28;20292;-67
2023/12/29 09:39:01;;;;;;;46.65;20.25;;;;;;;-13.97;79.96;100930.06;5045643;28;20052;-67
2023/12/29 09:41:35;;;;;;;45.65;16.92;;;;;;;-14.30;80.25;100911.88;5059492;28;20855;-67
2023/12/29 09:44:14;;;;;;;12.02;6.82;;;;;;;-14.31;80.62;100925.19;5049455;28;20093;-67
2023/12/29 09:46:46;;;;;;;8.57;4.25;;;;;;;-14.32;80.90;100929.34;5049670;28;20056;-67
2023/12/29 09:49:20;;;;;;;4.80;4.18;;;;;;;-14.31;81.07;100922.69;5059018;28;20048;-67
2023/12/29 09:51:51;;;;;;;7.88;4.15;;;;;;;-14.26;81.58;100924.00;5045160;28;20127;-67
2023/12/29 09:54:22;;;;;;;5.05;4.05;;;;;;;-14.22;82.01;100918.50;5055795;28;20377;-68
2023/12/29 09:56:54;;;;;;;8.35;4.78;;;;;;;-14.17;82.39;100919.81;5048976;28;20056;-68
2023/12/29 09:59:26;;;;;;;7.15;4.25;;;;;;;-14.12;82.62;100918.63;5059093;28;20386;-68
2023/12/29 10:01:58;;;;;;;5.43;4.07;;;;;;;-14.50;82.69;100853.22;5048026;28;20191;-68
2023/12/29 10:04:29;;;;;;;6.95;4.30;;;;;;;-14.05;82.73;100920.94;5058745;28;20060;-68
2023/12/29 10:07:07;;;;;;;7.00;3.88;;;;;;;-14.04;82.82;100920.19;5048381;28;20062;-66
2023/12/29 10:09:41;;;;;;;5.47;4.05;;;;;;;-14.05;82.78;100910.00;5044307;28;20066;-67
2023/12/29 10:12:12;;;;;;;4.68;3.85;;;;;;;-14.05;83.16;100893.31;5059152;28;20055;-67
2023/12/29 10:14:50;;;;;;;7.00;4.35;;;;;;;-13.85;83.06;100914.31;5047511;28;20071;-67
2023/12/29 10:17:39;;;;;;;7.22;4.55;;;;;;;-13.89;83.18;100899.72;5056596;28;20046;-67
2023/12/29 10:20:18;;;;;;;8.80;4.53;;;;;;;-13.71;82.81;100912.31;5047877;28;20163;-67
2023/12/29 10:22:56;;;;;;;7.93;4.43;;;;;;;-13.74;82.49;100921.22;5048538;28;20129;-67
2023/12/29 10:25:27;;;;;;;6.65;4.30;;;;;;;-13.79;82.37;100899.81;5057330;28;20435;-68
2023/12/29 10:27:58;;;;;;;51.95;17.23;;;;;;;-13.77;82.32;100913.41;5044198;28;20082;-68
2023/12/29 10:30:31;;;;;;;103.70;26.75;;;;;;;-13.78;82.00;100906.59;5054745;28;20128;-68
2023/12/29 10:33:05;;;;;;;74.75;23.02;;;;;;;-13.75;81.83;100909.38;5047692;28;20051;-68
2023/12/29 10:35:38;;;;;;;80.47;21.73;;;;;;;-13.76;81.71;100900.06;5045522;28;20052;-67
2023/12/29 10:38:13;;;;;;;16.58;6.93;;;;;;;-13.74;81.75;100903.63;5061655;28;20703;-68
2023/12/29 10:40:44;;;;;;;9.80;6.13;;;;;;;-13.67;81.55;100900.03;5052103;28;20189;-67
2023/12/29 10:43:14;;;;;;;11.38;5.35;;;;;;;-13.61;81.58;100901.44;5059347;28;20052;-67
2023/12/29 10:45:47;;;;;;;10.85;5.93;;;;;;;-13.59;81.38;100902.47;5048760;28;20621;-67
2023/12/29 10:48:24;;;;;;;9.80;5.70;;;;;;;-13.63;81.14;100897.91;5058930;28;20113;-67
2023/12/29 10:50:54;;;;;;;9.93;5.30;;;;;;;-13.67;81.19;100900.91;5048996;28;20057;-67
2023/12/29 10:53:24;;;;;;;9.75;5.68;;;;;;;-13.55;81.59;100902.00;5062545;28;20050;-67
2023/12/29 10:55:58;;;;;;;14.68;6.65;;;;;;;-13.84;81.62;100841.63;5052657;28;20558;-67
2023/12/29 10:58:29;;;;;;;10.68;5.00;;;;;;;-13.65;81.11;100893.50;5062157;28;20674;-67
2023/12/29 11:01:01;;;;;;;11.73;5.05;;;;;;;-13.68;81.30;100884.06;5047307;28;20146;-68
2023/12/29 11:03:32;;;;;;;12.63;6.05;;;;;;;-13.51;81.49;100893.97;5062852;28;20147;-66
2023/12/29 11:06:03;;;;;;;13.23;6.65;;;;;;;-13.53;81.95;100875.34;5044966;28;20143;-68
2023/12/29 11:08:38;;;;;;;28.45;9.02;;;;;;;-13.35;81.92;100890.31;5056227;28;20144;-67
2023/12/29 11:11:09;;;;;;;33.35;10.93;;;;;;;-13.41;81.55;100884.75;5062481;28;20055;-68
2023/12/29 11:13:40;;;;;;;19.95;7.47;;;;;;;-13.49;81.60;100874.88;5051827;28;20056;-67
2023/12/29 11:16:12;;;;;;;23.40;8.20;;;;;;;-13.50;81.51;100875.66;5061925;28;20146;-67
2023/12/29 11:18:44;;;;;;;22.95;8.25;;;;;;;-13.44;81.84;100869.41;5051616;28;20813;-67
2023/12/29 11:21:17;;;;;;;22.38;8.57;;;;;;;-13.42;81.73;100872.94;5060296;28;20058;-66
2023/12/29 11:23:48;;;;;;;19.65;7.43;;;;;;;-13.54;81.11;100871.09;5048610;28;20531;-66
2023/12/29 11:26:19;;;;;;;18.20;7.72;;;;;;;-13.73;80.62;100870.19;5061049;28;20112;-66
2023/12/29 11:28:50;;;;;;;14.00;6.55;;;;;;;-13.85;80.50;100874.13;5050827;28;20476;-66
2023/12/29 11:31:23;;;;;;;19.08;6.68;;;;;;;-13.91;80.52;100870.31;5061755;28;20162;-66
2023/12/29 11:33:59;;;;;;;15.73;7.07;;;;;;;-13.99;80.73;100871.25;5052230;28;20057;-67
2023/12/29 11:36:35;;;;;;;13.55;6.70;;;;;;;-13.97;80.71;100859.72;5061660;28;20071;-66